sensor_id;sensor_type;location;lat;lon;timestamp;P1;durP1;ratioP1;P2;durP2;ratioP2
2646;SDS011;1333;50.958;6.770;2023-03-01T00:01:14;7.23;;;4.53;;
2646;SDS011;1333;50.958;6.770;2023-03-01T00:03:41;9.10;;;4.20;;
2646;SDS011;1333;50.958;6.770;2023-03-01T00:06:07;8.87;;;4.13;;
2646;SDS011;1333;50.958;6.770;2023-03-01T00:08:33;7.40;;;5.57;;
2646;SDS011;1333;50.958;6.770;2023-03-01T00:11:03;7.97;;;5.43;;
2646;SDS011;1333;50.958;6.770;2023-03-01T00:13:34;5.03;;;4.10;;
2646;SDS011;1333;50.958;6.770;2023-03-01T00:16:04;7.67;;;4.43;;
2646;SDS011;1333;50.958;6.770;2023-03-01T00:18:30;6.17;;;4.40;;
2646;SDS011;1333;50.958;6.770;2023-03-01T00:20:56;8.07;;;5.03;;
2646;SDS011;1333;50.958;6.770;2023-03-01T00:23:22;8.70;;;5.17;;
2646;SDS011;1333;50.958;6.770;2023-03-01T00:25:48;4.87;;;4.20;;
2646;SDS011;1333;50.958;6.770;2023-03-01T00:28:15;6.70;;;3.87;;
2646;SDS011;1333;50.958;6.770;2023-03-01T00:30:40;9.40;;;5.10;;
2646;SDS011;1333;50.958;6.770;2023-03-01T00:33:06;8.63;;;4.87;;
2646;SDS011;1333;50.958;6.770;2023-03-01T00:35:32;7.60;;;5.27;;
2646;SDS011;1333;50.958;6.770;2023-03-01T00:37:58;9.00;;;5.00;;
2646;SDS011;1333;50.958;6.770;2023-03-01T00:40:24;8.67;;;4.90;;
2646;SDS011;1333;50.958;6.770;2023-03-01T00:42:50;9.67;;;4.93;;
2646;SDS011;1333;50.958;6.770;2023-03-01T00:45:16;9.47;;;5.20;;
2646;SDS011;1333;50.958;6.770;2023-03-01T00:47:42;6.20;;;4.70;;
2646;SDS011;1333;50.958;6.770;2023-03-01T00:50:08;4.37;;;4.00;;
2646;SDS011;1333;50.958;6.770;2023-03-01T00:52:35;8.33;;;4.70;;
2646;SDS011;1333;50.958;6.770;2023-03-01T00:55:01;5.73;;;4.40;;
2646;SDS011;1333;50.958;6.770;2023-03-01T00:57:27;6.97;;;4.27;;
2646;SDS011;1333;50.958;6.770;2023-03-01T00:59:53;5.37;;;4.07;;
2646;SDS011;1333;50.958;6.770;2023-03-01T01:02:19;4.90;;;4.23;;
2646;SDS011;1333;50.958;6.770;2023-03-01T01:04:45;4.40;;;3.90;;
2646;SDS011;1333;50.958;6.770;2023-03-01T01:07:11;8.10;;;4.77;;
2646;SDS011;1333;50.958;6.770;2023-03-01T01:09:37;7.23;;;4.40;;
2646;SDS011;1333;50.958;6.770;2023-03-01T01:12:03;7.83;;;5.37;;
2646;SDS011;1333;50.958;6.770;2023-03-01T01:14:28;7.73;;;4.27;;
2646;SDS011;1333;50.958;6.770;2023-03-01T01:16:54;6.47;;;4.57;;
2646;SDS011;1333;50.958;6.770;2023-03-01T01:19:20;7.57;;;5.33;;
2646;SDS011;1333;50.958;6.770;2023-03-01T01:21:46;6.70;;;4.30;;
2646;SDS011;1333;50.958;6.770;2023-03-01T01:24:13;8.10;;;4.73;;
2646;SDS011;1333;50.958;6.770;2023-03-01T01:26:39;7.53;;;4.73;;
2646;SDS011;1333;50.958;6.770;2023-03-01T01:29:05;5.27;;;3.83;;
2646;SDS011;1333;50.958;6.770;2023-03-01T01:31:31;7.00;;;4.40;;
2646;SDS011;1333;50.958;6.770;2023-03-01T01:33:59;5.20;;;4.20;;
2646;SDS011;1333;50.958;6.770;2023-03-01T01:36:26;7.23;;;4.23;;
2646;SDS011;1333;50.958;6.770;2023-03-01T01:38:52;5.80;;;4.00;;
2646;SDS011;1333;50.958;6.770;2023-03-01T01:41:18;4.27;;;3.87;;
2646;SDS011;1333;50.958;6.770;2023-03-01T01:43:47;9.60;;;4.10;;
2646;SDS011;1333;50.958;6.770;2023-03-01T01:48:47;5.80;;;4.43;;
2646;SDS011;1333;50.958;6.770;2023-03-01T01:51:23;6.50;;;4.90;;
2646;SDS011;1333;50.958;6.770;2023-03-01T01:53:53;10.80;;;4.83;;
2646;SDS011;1333;50.958;6.770;2023-03-01T01:56:24;7.33;;;4.23;;
2646;SDS011;1333;50.958;6.770;2023-03-01T01:58:51;4.67;;;3.63;;
2646;SDS011;1333;50.958;6.770;2023-03-01T02:01:17;7.80;;;5.10;;
2646;SDS011;1333;50.958;6.770;2023-03-01T02:03:43;7.60;;;4.20;;
2646;SDS011;1333;50.958;6.770;2023-03-01T02:08:43;7.33;;;4.90;;
2646;SDS011;1333;50.958;6.770;2023-03-01T02:11:10;6.00;;;4.50;;
2646;SDS011;1333;50.958;6.770;2023-03-01T02:13:39;6.17;;;4.27;;
2646;SDS011;1333;50.958;6.770;2023-03-01T02:16:10;4.33;;;3.93;;
2646;SDS011;1333;50.958;6.770;2023-03-01T02:18:38;13.23;;;4.30;;
2646;SDS011;1333;50.958;6.770;2023-03-01T02:21:08;7.07;;;3.90;;
2646;SDS011;1333;50.958;6.770;2023-03-01T02:24:13;6.70;;;5.10;;
2646;SDS011;1333;50.958;6.770;2023-03-01T02:26:47;7.80;;;4.30;;
2646;SDS011;1333;50.958;6.770;2023-03-01T02:29:14;6.20;;;4.10;;
2646;SDS011;1333;50.958;6.770;2023-03-01T02:31:40;4.67;;;3.77;;
2646;SDS011;1333;50.958;6.770;2023-03-01T02:34:09;9.70;;;4.37;;
2646;SDS011;1333;50.958;6.770;2023-03-01T02:36:45;6.10;;;4.13;;
2646;SDS011;1333;50.958;6.770;2023-03-01T02:39:42;6.17;;;4.17;;
2646;SDS011;1333;50.958;6.770;2023-03-01T02:42:14;4.63;;;3.63;;
2646;SDS011;1333;50.958;6.770;2023-03-01T02:44:45;7.73;;;4.60;;
2646;SDS011;1333;50.958;6.770;2023-03-01T02:47:10;5.53;;;4.10;;
2646;SDS011;1333;50.958;6.770;2023-03-01T02:49:36;8.47;;;4.73;;
2646;SDS011;1333;50.958;6.770;2023-03-01T02:54:47;5.67;;;4.10;;
2646;SDS011;1333;50.958;6.770;2023-03-01T02:57:17;8.37;;;5.67;;
2646;SDS011;1333;50.958;6.770;2023-03-01T02:59:43;10.43;;;4.07;;
2646;SDS011;1333;50.958;6.770;2023-03-01T03:02:19;4.63;;;4.13;;
2646;SDS011;1333;50.958;6.770;2023-03-01T03:05:00;8.47;;;4.23;;
2646;SDS011;1333;50.958;6.770;2023-03-01T03:07:31;6.77;;;5.03;;
2646;SDS011;1333;50.958;6.770;2023-03-01T03:09:58;6.07;;;4.33;;
2646;SDS011;1333;50.958;6.770;2023-03-01T03:12:23;6.10;;;4.33;;
2646;SDS011;1333;50.958;6.770;2023-03-01T03:14:49;7.33;;;4.40;;
2646;SDS011;1333;50.958;6.770;2023-03-01T03:17:14;4.53;;;4.00;;
2646;SDS011;1333;50.958;6.770;2023-03-01T03:19:40;6.10;;;3.80;;
2646;SDS011;1333;50.958;6.770;2023-03-01T03:22:05;10.00;;;4.40;;
2646;SDS011;1333;50.958;6.770;2023-03-01T03:24:33;4.50;;;3.90;;
2646;SDS011;1333;50.958;6.770;2023-03-01T03:27:03;4.07;;;3.10;;
2646;SDS011;1333;50.958;6.770;2023-03-01T03:29:30;6.97;;;4.20;;
2646;SDS011;1333;50.958;6.770;2023-03-01T03:31:56;5.13;;;3.93;;
2646;SDS011;1333;50.958;6.770;2023-03-01T03:34:21;7.63;;;4.30;;
2646;SDS011;1333;50.958;6.770;2023-03-01T03:36:47;5.20;;;4.30;;
2646;SDS011;1333;50.958;6.770;2023-03-01T03:39:12;6.90;;;4.47;;
2646;SDS011;1333;50.958;6.770;2023-03-01T03:41:38;8.07;;;4.50;;
2646;SDS011;1333;50.958;6.770;2023-03-01T03:44:03;7.70;;;4.90;;
2646;SDS011;1333;50.958;6.770;2023-03-01T03:46:29;5.87;;;5.10;;
2646;SDS011;1333;50.958;6.770;2023-03-01T03:48:55;4.87;;;4.30;;
2646;SDS011;1333;50.958;6.770;2023-03-01T03:51:20;6.47;;;4.43;;
2646;SDS011;1333;50.958;6.770;2023-03-01T03:53:47;8.27;;;4.47;;
2646;SDS011;1333;50.958;6.770;2023-03-01T03:56:13;8.40;;;4.07;;
2646;SDS011;1333;50.958;6.770;2023-03-01T03:58:39;5.80;;;4.27;;
2646;SDS011;1333;50.958;6.770;2023-03-01T04:01:04;10.80;;;5.20;;
2646;SDS011;1333;50.958;6.770;2023-03-01T04:03:30;7.93;;;6.03;;
2646;SDS011;1333;50.958;6.770;2023-03-01T04:05:58;7.73;;;4.93;;
2646;SDS011;1333;50.958;6.770;2023-03-01T04:08:24;11.23;;;4.90;;
2646;SDS011;1333;50.958;6.770;2023-03-01T04:10:51;9.33;;;5.63;;
2646;SDS011;1333;50.958;6.770;2023-03-01T04:13:21;7.83;;;5.53;;
2646;SDS011;1333;50.958;6.770;2023-03-01T04:15:50;6.73;;;4.60;;
2646;SDS011;1333;50.958;6.770;2023-03-01T04:18:17;12.90;;;5.70;;
2646;SDS011;1333;50.958;6.770;2023-03-01T04:20:47;5.23;;;3.80;;
2646;SDS011;1333;50.958;6.770;2023-03-01T04:23:17;5.50;;;4.27;;
2646;SDS011;1333;50.958;6.770;2023-03-01T04:28:25;5.57;;;4.47;;
2646;SDS011;1333;50.958;6.770;2023-03-01T04:30:54;8.83;;;6.00;;
2646;SDS011;1333;50.958;6.770;2023-03-01T04:33:21;5.50;;;4.90;;
2646;SDS011;1333;50.958;6.770;2023-03-01T04:35:47;5.50;;;4.87;;
2646;SDS011;1333;50.958;6.770;2023-03-01T04:38:16;10.33;;;4.63;;
2646;SDS011;1333;50.958;6.770;2023-03-01T04:40:43;5.03;;;4.20;;
2646;SDS011;1333;50.958;6.770;2023-03-01T04:43:09;10.43;;;5.67;;
2646;SDS011;1333;50.958;6.770;2023-03-01T04:45:35;10.70;;;5.10;;
2646;SDS011;1333;50.958;6.770;2023-03-01T04:48:01;6.87;;;5.03;;
2646;SDS011;1333;50.958;6.770;2023-03-01T04:50:27;8.33;;;5.20;;
2646;SDS011;1333;50.958;6.770;2023-03-01T04:52:53;9.87;;;5.90;;
2646;SDS011;1333;50.958;6.770;2023-03-01T04:55:23;9.03;;;5.47;;
2646;SDS011;1333;50.958;6.770;2023-03-01T04:57:52;8.47;;;5.40;;
2646;SDS011;1333;50.958;6.770;2023-03-01T05:00:18;9.40;;;4.77;;
2646;SDS011;1333;50.958;6.770;2023-03-01T05:02:45;8.03;;;4.80;;
2646;SDS011;1333;50.958;6.770;2023-03-01T05:05:18;7.70;;;5.27;;
2646;SDS011;1333;50.958;6.770;2023-03-01T05:07:50;9.87;;;5.80;;
2646;SDS011;1333;50.958;6.770;2023-03-01T05:10:16;9.13;;;5.17;;
2646;SDS011;1333;50.958;6.770;2023-03-01T05:12:42;6.97;;;4.50;;
2646;SDS011;1333;50.958;6.770;2023-03-01T05:15:07;6.90;;;5.33;;
2646;SDS011;1333;50.958;6.770;2023-03-01T05:17:33;9.00;;;7.00;;
2646;SDS011;1333;50.958;6.770;2023-03-01T05:19:59;13.30;;;6.27;;
2646;SDS011;1333;50.958;6.770;2023-03-01T05:22:25;9.80;;;6.27;;
2646;SDS011;1333;50.958;6.770;2023-03-01T05:24:51;6.57;;;5.03;;
2646;SDS011;1333;50.958;6.770;2023-03-01T05:27:18;8.40;;;6.23;;
2646;SDS011;1333;50.958;6.770;2023-03-01T05:29:47;7.87;;;5.60;;
2646;SDS011;1333;50.958;6.770;2023-03-01T05:32:12;8.10;;;5.00;;
2646;SDS011;1333;50.958;6.770;2023-03-01T05:34:40;8.47;;;7.27;;
2646;SDS011;1333;50.958;6.770;2023-03-01T05:37:06;8.77;;;5.47;;
2646;SDS011;1333;50.958;6.770;2023-03-01T05:39:32;6.33;;;5.50;;
2646;SDS011;1333;50.958;6.770;2023-03-01T05:41:59;7.03;;;5.00;;
2646;SDS011;1333;50.958;6.770;2023-03-01T05:44:26;7.13;;;5.07;;
2646;SDS011;1333;50.958;6.770;2023-03-01T05:46:53;8.53;;;4.47;;
2646;SDS011;1333;50.958;6.770;2023-03-01T05:49:19;9.30;;;5.87;;
2646;SDS011;1333;50.958;6.770;2023-03-01T05:51:49;8.03;;;5.30;;
2646;SDS011;1333;50.958;6.770;2023-03-01T05:54:16;9.07;;;5.40;;
2646;SDS011;1333;50.958;6.770;2023-03-01T05:56:42;7.80;;;5.23;;
2646;SDS011;1333;50.958;6.770;2023-03-01T05:59:08;6.73;;;6.03;;
2646;SDS011;1333;50.958;6.770;2023-03-01T06:01:34;8.23;;;5.53;;
2646;SDS011;1333;50.958;6.770;2023-03-01T06:04:00;7.90;;;5.33;;
2646;SDS011;1333;50.958;6.770;2023-03-01T06:06:27;12.17;;;5.00;;
2646;SDS011;1333;50.958;6.770;2023-03-01T06:08:52;7.07;;;5.57;;
2646;SDS011;1333;50.958;6.770;2023-03-01T06:11:18;8.43;;;6.00;;
2646;SDS011;1333;50.958;6.770;2023-03-01T06:13:45;8.10;;;5.63;;
2646;SDS011;1333;50.958;6.770;2023-03-01T06:16:11;9.67;;;6.77;;
2646;SDS011;1333;50.958;6.770;2023-03-01T06:18:37;10.53;;;5.60;;
2646;SDS011;1333;50.958;6.770;2023-03-01T06:21:03;6.40;;;4.70;;
2646;SDS011;1333;50.958;6.770;2023-03-01T06:23:29;8.93;;;5.93;;
2646;SDS011;1333;50.958;6.770;2023-03-01T06:25:55;9.33;;;6.53;;
2646;SDS011;1333;50.958;6.770;2023-03-01T06:28:20;7.20;;;5.57;;
2646;SDS011;1333;50.958;6.770;2023-03-01T06:30:46;11.57;;;6.67;;
2646;SDS011;1333;50.958;6.770;2023-03-01T06:33:11;13.30;;;6.00;;
2646;SDS011;1333;50.958;6.770;2023-03-01T06:35:37;8.73;;;5.70;;
2646;SDS011;1333;50.958;6.770;2023-03-01T06:38:03;13.03;;;6.57;;
2646;SDS011;1333;50.958;6.770;2023-03-01T06:40:30;5.40;;;4.90;;
2646;SDS011;1333;50.958;6.770;2023-03-01T06:42:56;9.23;;;5.80;;
2646;SDS011;1333;50.958;6.770;2023-03-01T06:45:22;8.17;;;4.83;;
2646;SDS011;1333;50.958;6.770;2023-03-01T06:47:48;7.60;;;5.23;;
2646;SDS011;1333;50.958;6.770;2023-03-01T06:50:14;7.50;;;5.77;;
2646;SDS011;1333;50.958;6.770;2023-03-01T06:52:40;10.60;;;5.80;;
2646;SDS011;1333;50.958;6.770;2023-03-01T06:55:06;11.77;;;6.00;;
2646;SDS011;1333;50.958;6.770;2023-03-01T06:57:32;6.97;;;5.90;;
2646;SDS011;1333;50.958;6.770;2023-03-01T06:59:57;11.73;;;5.10;;
2646;SDS011;1333;50.958;6.770;2023-03-01T07:02:23;12.30;;;6.70;;
2646;SDS011;1333;50.958;6.770;2023-03-01T07:04:50;9.87;;;5.83;;
2646;SDS011;1333;50.958;6.770;2023-03-01T07:07:16;9.90;;;5.40;;
2646;SDS011;1333;50.958;6.770;2023-03-01T07:09:43;11.03;;;7.10;;
2646;SDS011;1333;50.958;6.770;2023-03-01T07:12:13;8.23;;;5.70;;
2646;SDS011;1333;50.958;6.770;2023-03-01T07:14:39;9.77;;;6.17;;
2646;SDS011;1333;50.958;6.770;2023-03-01T07:17:04;12.37;;;7.00;;
2646;SDS011;1333;50.958;6.770;2023-03-01T07:19:30;10.33;;;6.80;;
2646;SDS011;1333;50.958;6.770;2023-03-01T07:21:56;9.70;;;7.23;;
2646;SDS011;1333;50.958;6.770;2023-03-01T07:24:21;11.13;;;6.57;;
2646;SDS011;1333;50.958;6.770;2023-03-01T07:26:50;6.53;;;5.53;;
2646;SDS011;1333;50.958;6.770;2023-03-01T07:29:16;8.33;;;5.97;;
2646;SDS011;1333;50.958;6.770;2023-03-01T07:31:42;12.60;;;6.97;;
2646;SDS011;1333;50.958;6.770;2023-03-01T07:34:08;8.93;;;6.10;;
2646;SDS011;1333;50.958;6.770;2023-03-01T07:36:34;10.03;;;6.00;;
2646;SDS011;1333;50.958;6.770;2023-03-01T07:38:59;11.53;;;7.40;;
2646;SDS011;1333;50.958;6.770;2023-03-01T07:41:27;8.80;;;5.93;;
2646;SDS011;1333;50.958;6.770;2023-03-01T07:43:52;10.57;;;6.03;;
2646;SDS011;1333;50.958;6.770;2023-03-01T07:46:18;12.10;;;6.57;;
2646;SDS011;1333;50.958;6.770;2023-03-01T07:48:44;9.20;;;6.30;;
2646;SDS011;1333;50.958;6.770;2023-03-01T07:51:09;8.93;;;6.40;;
2646;SDS011;1333;50.958;6.770;2023-03-01T07:53:35;12.07;;;7.57;;
2646;SDS011;1333;50.958;6.770;2023-03-01T07:56:06;10.33;;;6.40;;
2646;SDS011;1333;50.958;6.770;2023-03-01T07:58:39;10.40;;;7.07;;
2646;SDS011;1333;50.958;6.770;2023-03-01T08:01:07;13.83;;;6.53;;
2646;SDS011;1333;50.958;6.770;2023-03-01T08:03:36;12.80;;;7.57;;
2646;SDS011;1333;50.958;6.770;2023-03-01T08:06:03;9.93;;;7.33;;
2646;SDS011;1333;50.958;6.770;2023-03-01T08:08:30;8.70;;;6.53;;
2646;SDS011;1333;50.958;6.770;2023-03-01T08:10:56;8.43;;;6.77;;
2646;SDS011;1333;50.958;6.770;2023-03-01T08:13:23;8.23;;;5.73;;
2646;SDS011;1333;50.958;6.770;2023-03-01T08:15:48;7.40;;;5.97;;
2646;SDS011;1333;50.958;6.770;2023-03-01T08:18:15;8.20;;;6.10;;
2646;SDS011;1333;50.958;6.770;2023-03-01T08:20:41;7.50;;;6.80;;
2646;SDS011;1333;50.958;6.770;2023-03-01T08:23:06;8.73;;;6.97;;
2646;SDS011;1333;50.958;6.770;2023-03-01T08:25:32;8.27;;;6.40;;
2646;SDS011;1333;50.958;6.770;2023-03-01T08:27:57;7.70;;;7.00;;
2646;SDS011;1333;50.958;6.770;2023-03-01T08:30:23;8.73;;;7.50;;
2646;SDS011;1333;50.958;6.770;2023-03-01T08:32:49;7.40;;;6.70;;
2646;SDS011;1333;50.958;6.770;2023-03-01T08:35:15;12.47;;;7.90;;
2646;SDS011;1333;50.958;6.770;2023-03-01T08:37:41;7.60;;;6.80;;
2646;SDS011;1333;50.958;6.770;2023-03-01T08:40:07;9.57;;;7.73;;
2646;SDS011;1333;50.958;6.770;2023-03-01T08:42:35;8.90;;;7.30;;
2646;SDS011;1333;50.958;6.770;2023-03-01T08:45:01;7.40;;;6.53;;
2646;SDS011;1333;50.958;6.770;2023-03-01T08:47:27;7.63;;;6.90;;
2646;SDS011;1333;50.958;6.770;2023-03-01T08:49:52;7.87;;;7.07;;
2646;SDS011;1333;50.958;6.770;2023-03-01T08:52:19;7.53;;;6.53;;
2646;SDS011;1333;50.958;6.770;2023-03-01T08:54:45;8.27;;;7.57;;
2646;SDS011;1333;50.958;6.770;2023-03-01T08:57:12;8.50;;;7.70;;
2646;SDS011;1333;50.958;6.770;2023-03-01T08:59:38;8.23;;;7.43;;
2646;SDS011;1333;50.958;6.770;2023-03-01T09:02:04;6.77;;;6.20;;
2646;SDS011;1333;50.958;6.770;2023-03-01T09:04:31;8.03;;;6.53;;
2646;SDS011;1333;50.958;6.770;2023-03-01T09:06:58;10.93;;;7.60;;
2646;SDS011;1333;50.958;6.770;2023-03-01T09:09:24;7.63;;;6.90;;
2646;SDS011;1333;50.958;6.770;2023-03-01T09:11:49;8.33;;;7.63;;
2646;SDS011;1333;50.958;6.770;2023-03-01T09:14:15;7.93;;;7.23;;
2646;SDS011;1333;50.958;6.770;2023-03-01T09:16:41;9.00;;;8.07;;
2646;SDS011;1333;50.958;6.770;2023-03-01T09:19:07;8.13;;;7.40;;
2646;SDS011;1333;50.958;6.770;2023-03-01T09:21:32;8.17;;;7.40;;
2646;SDS011;1333;50.958;6.770;2023-03-01T09:23:58;7.67;;;6.87;;
2646;SDS011;1333;50.958;6.770;2023-03-01T09:26:24;8.03;;;6.50;;
2646;SDS011;1333;50.958;6.770;2023-03-01T09:28:50;8.10;;;7.27;;
2646;SDS011;1333;50.958;6.770;2023-03-01T09:31:17;10.67;;;9.80;;
2646;SDS011;1333;50.958;6.770;2023-03-01T09:33:47;7.90;;;7.10;;
2646;SDS011;1333;50.958;6.770;2023-03-01T09:36:16;6.77;;;6.20;;
2646;SDS011;1333;50.958;6.770;2023-03-01T09:38:45;8.33;;;7.53;;
2646;SDS011;1333;50.958;6.770;2023-03-01T09:43:56;7.20;;;6.50;;
2646;SDS011;1333;50.958;6.770;2023-03-01T09:46:28;8.50;;;6.83;;
2646;SDS011;1333;50.958;6.770;2023-03-01T09:49:01;7.67;;;6.97;;
2646;SDS011;1333;50.958;6.770;2023-03-01T09:51:30;7.27;;;6.60;;
2646;SDS011;1333;50.958;6.770;2023-03-01T09:54:00;7.73;;;6.43;;
2646;SDS011;1333;50.958;6.770;2023-03-01T09:56:29;7.83;;;7.07;;
2646;SDS011;1333;50.958;6.770;2023-03-01T10:04:27;6.90;;;6.30;;
2646;SDS011;1333;50.958;6.770;2023-03-01T10:07:06;6.20;;;5.60;;
2646;SDS011;1333;50.958;6.770;2023-03-01T10:09:57;8.40;;;7.20;;
2646;SDS011;1333;50.958;6.770;2023-03-01T10:12:26;6.40;;;5.80;;
2646;SDS011;1333;50.958;6.770;2023-03-01T10:14:57;10.80;;;7.83;;
2646;SDS011;1333;50.958;6.770;2023-03-01T10:17:41;6.67;;;6.07;;
2646;SDS011;1333;50.958;6.770;2023-03-01T10:20:19;6.70;;;6.10;;
2646;SDS011;1333;50.958;6.770;2023-03-01T10:22:46;7.73;;;6.90;;
2646;SDS011;1333;50.958;6.770;2023-03-01T10:25:17;8.27;;;7.57;;
2646;SDS011;1333;50.958;6.770;2023-03-01T10:27:58;7.87;;;7.17;;
2646;SDS011;1333;50.958;6.770;2023-03-01T10:33:06;10.43;;;7.97;;
2646;SDS011;1333;50.958;6.770;2023-03-01T10:35:43;7.77;;;7.13;;
2646;SDS011;1333;50.958;6.770;2023-03-01T10:38:10;7.10;;;5.87;;
2646;SDS011;1333;50.958;6.770;2023-03-01T10:43:32;10.63;;;6.80;;
2646;SDS011;1333;50.958;6.770;2023-03-01T10:46:19;9.17;;;6.70;;
2646;SDS011;1333;50.958;6.770;2023-03-01T10:49:05;6.27;;;5.67;;
2646;SDS011;1333;50.958;6.770;2023-03-01T10:51:31;7.83;;;6.47;;
2646;SDS011;1333;50.958;6.770;2023-03-01T10:53:57;7.80;;;7.10;;
2646;SDS011;1333;50.958;6.770;2023-03-01T10:56:23;7.80;;;7.03;;
2646;SDS011;1333;50.958;6.770;2023-03-01T11:01:30;8.83;;;8.00;;
2646;SDS011;1333;50.958;6.770;2023-03-01T11:06:33;9.33;;;7.57;;
2646;SDS011;1333;50.958;6.770;2023-03-01T11:11:42;8.23;;;6.20;;
2646;SDS011;1333;50.958;6.770;2023-03-01T11:14:15;8.73;;;6.20;;
2646;SDS011;1333;50.958;6.770;2023-03-01T11:17:11;7.17;;;6.67;;
2646;SDS011;1333;50.958;6.770;2023-03-01T11:22:31;7.23;;;6.53;;
2646;SDS011;1333;50.958;6.770;2023-03-01T11:24:59;7.07;;;6.37;;
2646;SDS011;1333;50.958;6.770;2023-03-01T11:27:27;5.70;;;5.20;;
2646;SDS011;1333;50.958;6.770;2023-03-01T11:33:05;7.40;;;6.67;;
2646;SDS011;1333;50.958;6.770;2023-03-01T11:35:47;6.20;;;5.40;;
2646;SDS011;1333;50.958;6.770;2023-03-01T11:38:29;8.07;;;5.77;;
2646;SDS011;1333;50.958;6.770;2023-03-01T11:41:06;6.57;;;5.97;;
2646;SDS011;1333;50.958;6.770;2023-03-01T11:43:56;9.17;;;8.00;;
2646;SDS011;1333;50.958;6.770;2023-03-01T11:57:39;8.50;;;7.80;;
2646;SDS011;1333;50.958;6.770;2023-03-01T12:00:25;6.73;;;6.13;;
2646;SDS011;1333;50.958;6.770;2023-03-01T12:03:13;6.13;;;5.53;;
2646;SDS011;1333;50.958;6.770;2023-03-01T12:06:10;5.57;;;5.07;;
2646;SDS011;1333;50.958;6.770;2023-03-01T12:09:02;7.53;;;6.93;;
2646;SDS011;1333;50.958;6.770;2023-03-01T12:11:56;5.80;;;5.20;;
2646;SDS011;1333;50.958;6.770;2023-03-01T12:25:58;6.70;;;6.20;;
2646;SDS011;1333;50.958;6.770;2023-03-01T12:50:57;19.07;;;14.70;;
2646;SDS011;1333;50.958;6.770;2023-03-01T12:55:58;6.60;;;6.00;;
2646;SDS011;1333;50.958;6.770;2023-03-01T12:58:28;6.27;;;5.67;;
2646;SDS011;1333;50.958;6.770;2023-03-01T13:04:02;8.40;;;7.70;;
2646;SDS011;1333;50.958;6.770;2023-03-01T13:06:32;7.00;;;6.50;;
2646;SDS011;1333;50.958;6.770;2023-03-01T13:09:48;7.10;;;6.50;;
2646;SDS011;1333;50.958;6.770;2023-03-01T13:11:55;8.07;;;6.80;;
2646;SDS011;1333;50.958;6.770;2023-03-01T13:16:50;9.43;;;7.53;;
2646;SDS011;1333;50.958;6.770;2023-03-01T13:19:21;10.83;;;8.00;;
2646;SDS011;1333;50.958;6.770;2023-03-01T13:21:49;6.60;;;6.00;;
2646;SDS011;1333;50.958;6.770;2023-03-01T13:24:23;7.17;;;6.57;;
2646;SDS011;1333;50.958;6.770;2023-03-01T13:27:08;8.07;;;7.37;;
2646;SDS011;1333;50.958;6.770;2023-03-01T13:37:42;7.90;;;7.10;;
2646;SDS011;1333;50.958;6.770;2023-03-01T13:42:47;6.93;;;6.33;;
2646;SDS011;1333;50.958;6.770;2023-03-01T13:45:36;9.20;;;7.23;;
2646;SDS011;1333;50.958;6.770;2023-03-01T13:48:02;7.63;;;6.93;;
2646;SDS011;1333;50.958;6.770;2023-03-01T13:50:58;7.33;;;6.63;;
2646;SDS011;1333;50.958;6.770;2023-03-01T13:53:26;7.13;;;6.40;;
2646;SDS011;1333;50.958;6.770;2023-03-01T13:56:33;7.43;;;6.30;;
2646;SDS011;1333;50.958;6.770;2023-03-01T13:58:58;5.93;;;5.50;;
2646;SDS011;1333;50.958;6.770;2023-03-01T14:03:56;6.97;;;6.37;;
2646;SDS011;1333;50.958;6.770;2023-03-01T14:06:23;6.87;;;5.23;;
2646;SDS011;1333;50.958;6.770;2023-03-01T14:09:05;6.73;;;5.90;;
2646;SDS011;1333;50.958;6.770;2023-03-01T14:11:50;6.73;;;6.17;;
2646;SDS011;1333;50.958;6.770;2023-03-01T14:14:41;8.17;;;6.10;;
2646;SDS011;1333;50.958;6.770;2023-03-01T14:20:07;6.60;;;5.97;;
2646;SDS011;1333;50.958;6.770;2023-03-01T14:22:37;8.50;;;6.07;;
2646;SDS011;1333;50.958;6.770;2023-03-01T14:27:58;7.27;;;6.57;;
2646;SDS011;1333;50.958;6.770;2023-03-01T14:30:58;7.87;;;6.23;;
2646;SDS011;1333;50.958;6.770;2023-03-01T14:35:56;7.80;;;6.90;;
2646;SDS011;1333;50.958;6.770;2023-03-01T14:38:23;5.67;;;5.13;;
2646;SDS011;1333;50.958;6.770;2023-03-01T14:41:17;6.53;;;5.50;;
2646;SDS011;1333;50.958;6.770;2023-03-01T14:43:46;7.00;;;6.40;;
2646;SDS011;1333;50.958;6.770;2023-03-01T14:46:19;6.03;;;5.53;;
2646;SDS011;1333;50.958;6.770;2023-03-01T14:48:48;5.90;;;5.30;;
2646;SDS011;1333;50.958;6.770;2023-03-01T14:51:19;7.47;;;5.27;;
2646;SDS011;1333;50.958;6.770;2023-03-01T14:53:45;9.20;;;6.47;;
2646;SDS011;1333;50.958;6.770;2023-03-01T14:56:14;12.50;;;5.90;;
2646;SDS011;1333;50.958;6.770;2023-03-01T14:58:42;6.87;;;5.77;;
2646;SDS011;1333;50.958;6.770;2023-03-01T15:01:10;7.43;;;6.03;;
2646;SDS011;1333;50.958;6.770;2023-03-01T15:03:41;9.20;;;6.37;;
2646;SDS011;1333;50.958;6.770;2023-03-01T15:06:08;6.23;;;5.73;;
2646;SDS011;1333;50.958;6.770;2023-03-01T15:08:36;5.77;;;5.13;;
2646;SDS011;1333;50.958;6.770;2023-03-01T15:13:38;6.70;;;5.97;;
2646;SDS011;1333;50.958;6.770;2023-03-01T15:18:33;7.03;;;5.63;;
2646;SDS011;1333;50.958;6.770;2023-03-01T15:21:13;6.13;;;5.53;;
2646;SDS011;1333;50.958;6.770;2023-03-01T15:23:40;6.97;;;5.50;;
2646;SDS011;1333;50.958;6.770;2023-03-01T15:26:06;6.30;;;5.17;;
2646;SDS011;1333;50.958;6.770;2023-03-01T15:28:48;6.03;;;5.00;;
2646;SDS011;1333;50.958;6.770;2023-03-01T15:31:23;6.03;;;5.43;;
2646;SDS011;1333;50.958;6.770;2023-03-01T15:33:50;8.20;;;6.23;;
2646;SDS011;1333;50.958;6.770;2023-03-01T15:39:05;7.90;;;5.80;;
2646;SDS011;1333;50.958;6.770;2023-03-01T15:41:50;6.87;;;5.10;;
2646;SDS011;1333;50.958;6.770;2023-03-01T15:44:17;8.20;;;5.47;;
2646;SDS011;1333;50.958;6.770;2023-03-01T15:46:57;10.10;;;6.13;;
2646;SDS011;1333;50.958;6.770;2023-03-01T15:49:37;7.13;;;6.00;;
2646;SDS011;1333;50.958;6.770;2023-03-01T15:52:10;7.60;;;5.13;;
2646;SDS011;1333;50.958;6.770;2023-03-01T15:54:53;6.97;;;5.57;;
2646;SDS011;1333;50.958;6.770;2023-03-01T15:57:23;6.40;;;5.43;;
2646;SDS011;1333;50.958;6.770;2023-03-01T15:59:48;6.33;;;4.60;;
2646;SDS011;1333;50.958;6.770;2023-03-01T16:02:14;6.27;;;5.60;;
2646;SDS011;1333;50.958;6.770;2023-03-01T16:04:39;7.43;;;5.70;;
2646;SDS011;1333;50.958;6.770;2023-03-01T16:07:05;7.10;;;5.30;;
2646;SDS011;1333;50.958;6.770;2023-03-01T16:09:31;7.47;;;5.97;;
2646;SDS011;1333;50.958;6.770;2023-03-01T16:11:57;7.20;;;5.10;;
2646;SDS011;1333;50.958;6.770;2023-03-01T16:14:23;7.30;;;5.17;;
2646;SDS011;1333;50.958;6.770;2023-03-01T16:16:49;9.90;;;5.10;;
2646;SDS011;1333;50.958;6.770;2023-03-01T16:19:15;6.03;;;4.80;;
2646;SDS011;1333;50.958;6.770;2023-03-01T16:21:41;10.50;;;5.20;;
2646;SDS011;1333;50.958;6.770;2023-03-01T16:24:08;6.50;;;5.27;;
2646;SDS011;1333;50.958;6.770;2023-03-01T16:26:34;12.73;;;5.70;;
2646;SDS011;1333;50.958;6.770;2023-03-01T16:29:02;5.00;;;4.30;;
2646;SDS011;1333;50.958;6.770;2023-03-01T16:31:28;5.57;;;4.30;;
2646;SDS011;1333;50.958;6.770;2023-03-01T16:33:54;6.23;;;5.47;;
2646;SDS011;1333;50.958;6.770;2023-03-01T16:36:23;7.00;;;5.40;;
2646;SDS011;1333;50.958;6.770;2023-03-01T16:38:50;8.23;;;4.67;;
2646;SDS011;1333;50.958;6.770;2023-03-01T16:41:17;5.33;;;4.53;;
2646;SDS011;1333;50.958;6.770;2023-03-01T16:43:44;6.50;;;4.90;;
2646;SDS011;1333;50.958;6.770;2023-03-01T16:46:14;12.23;;;5.57;;
2646;SDS011;1333;50.958;6.770;2023-03-01T16:48:40;5.57;;;4.57;;
2646;SDS011;1333;50.958;6.770;2023-03-01T16:51:06;6.20;;;4.47;;
2646;SDS011;1333;50.958;6.770;2023-03-01T16:53:32;8.20;;;5.00;;
2646;SDS011;1333;50.958;6.770;2023-03-01T16:56:00;5.03;;;3.90;;
2646;SDS011;1333;50.958;6.770;2023-03-01T16:58:27;5.93;;;4.10;;
2646;SDS011;1333;50.958;6.770;2023-03-01T17:00:52;6.23;;;4.37;;
2646;SDS011;1333;50.958;6.770;2023-03-01T17:03:22;5.10;;;4.10;;
2646;SDS011;1333;50.958;6.770;2023-03-01T17:05:50;9.10;;;4.00;;
2646;SDS011;1333;50.958;6.770;2023-03-01T17:08:16;5.23;;;3.73;;
2646;SDS011;1333;50.958;6.770;2023-03-01T17:10:42;7.10;;;4.10;;
2646;SDS011;1333;50.958;6.770;2023-03-01T17:13:08;4.40;;;3.63;;
2646;SDS011;1333;50.958;6.770;2023-03-01T17:15:37;5.83;;;3.80;;
2646;SDS011;1333;50.958;6.770;2023-03-01T17:18:04;4.77;;;4.33;;
2646;SDS011;1333;50.958;6.770;2023-03-01T17:20:30;9.70;;;5.20;;
2646;SDS011;1333;50.958;6.770;2023-03-01T17:22:55;7.90;;;4.70;;
2646;SDS011;1333;50.958;6.770;2023-03-01T17:25:21;9.07;;;5.07;;